createdAt,value
2023-03-02T00:00:56.542Z,177.25
2023-03-02T00:01:56.544Z,176.30
2023-03-02T00:02:56.595Z,177.42
2023-03-02T00:03:56.760Z,177.67
2023-03-02T00:04:56.686Z,175.74
2023-03-02T00:05:56.741Z,175.09
2023-03-02T00:06:56.791Z,176.40
2023-03-02T00:07:56.823Z,177.19
2023-03-02T00:08:56.909Z,176.85
2023-03-02T00:09:56.979Z,178.28
2023-03-02T00:10:57.056Z,177.43
2023-03-02T00:11:57.087Z,176.85
2023-03-02T00:12:57.138Z,176.73
2023-03-02T00:13:57.211Z,177.08
2023-03-02T00:14:57.276Z,177.89
2023-03-02T00:15:57.382Z,177.12
2023-03-02T00:16:57.375Z,176.68
2023-03-02T00:17:57.440Z,175.75
2023-03-02T00:18:57.487Z,177.45
2023-03-02T00:19:57.558Z,177.37
2023-03-02T00:20:57.618Z,177.01
2023-03-02T00:21:57.657Z,177.27
2023-03-02T00:22:57.740Z,176.35
2023-03-02T00:23:57.764Z,176.27
2023-03-02T00:24:57.839Z,176.05
2023-03-02T00:25:57.876Z,176.53
2023-03-02T01:35:59.903Z,173.77
2023-03-02T01:36:59.881Z,172.23
2023-03-02T01:37:59.886Z,174.76
2023-03-02T01:38:59.929Z,174.16
2023-03-02T01:39:59.953Z,173.89
2023-03-02T01:40:59.965Z,174.52
2023-03-02T01:41:59.989Z,174.76
2023-03-02T01:42:59.985Z,173.45
2023-03-02T01:44:00.037Z,174.05
2023-03-02T01:45:00.106Z,171.72
2023-03-02T01:46:00.079Z,174.81
2023-03-02T01:47:00.063Z,175.05
2023-03-02T01:48:00.082Z,173.66
2023-03-02T01:49:00.096Z,174.29
2023-03-02T01:50:00.082Z,172.93
2023-03-02T01:51:00.132Z,175.47
2023-03-02T01:52:00.099Z,174.94
2023-03-02T01:53:00.112Z,174.99
2023-03-02T01:54:00.139Z,174.19
2023-03-02T01:55:00.126Z,173.71
2023-03-02T01:56:00.168Z,175.07
2023-03-02T01:57:00.234Z,174.29
2023-03-02T01:58:00.223Z,174.38
2023-03-02T01:59:00.292Z,173.39
2023-03-02T02:00:00.341Z,174.70
2023-03-02T02:01:00.425Z,172.44
2023-03-02T02:02:00.409Z,174.15
2023-03-02T02:03:00.431Z,174.82
2023-03-02T02:04:00.526Z,173.52
2023-03-02T02:05:00.485Z,173.93
2023-03-02T02:06:00.540Z,174.14
2023-03-02T02:07:00.555Z,173.59
2023-03-02T02:08:00.563Z,175.23
2023-03-02T02:09:00.570Z,173.23
2023-03-02T02:10:00.585Z,174.36
2023-03-02T02:11:00.576Z,173.86
2023-03-02T02:12:00.584Z,174.98
2023-03-02T02:13:00.592Z,174.23
2023-03-02T02:14:00.607Z,174.64
2023-03-02T02:15:00.636Z,173.26
2023-03-02T02:16:00.611Z,174.74
2023-03-02T02:17:00.604Z,173.67
2023-03-02T02:18:00.626Z,172.21
2023-03-02T02:19:00.615Z,173.67
2023-03-02T02:20:00.643Z,174.36
2023-03-02T02:21:00.640Z,173.69
2023-03-02T02:22:00.621Z,174.15
2023-03-02T02:23:00.601Z,172.75
2023-03-02T02:24:00.645Z,173.63
2023-03-02T02:25:00.707Z,175.46
2023-03-02T02:26:00.731Z,173.00
2023-03-02T02:27:00.795Z,173.60
2023-03-02T02:28:00.757Z,173.26
2023-03-02T02:29:00.804Z,174.44
2023-03-02T02:30:00.774Z,175.52
2023-03-02T02:31:00.770Z,172.44
2023-03-02T02:32:00.963Z,173.61
2023-03-02T02:33:00.836Z,174.65
2023-03-02T02:34:00.894Z,173.81
2023-03-02T02:35:00.897Z,175.40
2023-03-02T02:36:00.914Z,174.41
2023-03-02T02:37:00.853Z,174.21
2023-03-02T02:38:00.919Z,173.20
2023-03-02T02:39:00.921Z,173.23
2023-03-02T02:40:00.945Z,175.11
2023-03-02T02:41:00.973Z,174.83
2023-03-02T02:42:00.986Z,174.50
2023-03-02T02:43:01.045Z,173.62
2023-03-02T02:44:01.083Z,174.42
2023-03-02T02:45:01.241Z,175.18
2023-03-02T02:46:01.165Z,172.34
2023-03-02T02:47:01.150Z,173.61
2023-03-02T02:48:01.175Z,174.23
2023-03-02T02:49:01.216Z,173.34
2023-03-02T02:50:01.218Z,174.85
2023-03-02T02:51:01.218Z,173.48
2023-03-02T02:52:01.187Z,173.11
2023-03-02T02:53:01.210Z,174.09
2023-03-02T02:54:01.225Z,174.71
2023-03-02T02:55:01.213Z,173.50
2023-03-02T02:56:01.200Z,174.06
2023-03-02T02:57:01.217Z,173.04
2023-03-02T02:58:01.277Z,173.66
2023-03-02T02:59:01.265Z,173.81
2023-03-02T03:00:01.278Z,174.09
2023-03-02T03:01:01.483Z,173.36
2023-03-02T03:02:01.359Z,173.24
2023-03-02T03:03:01.344Z,172.07
2023-03-02T03:04:01.489Z,172.98
2023-03-02T03:05:01.387Z,174.05
2023-03-02T03:06:01.420Z,174.28
2023-03-02T03:07:01.460Z,175.76
2023-03-02T03:08:01.480Z,172.67
2023-03-02T03:09:01.494Z,172.51
2023-03-02T03:10:01.592Z,173.21
2023-03-02T03:11:01.509Z,174.07
2023-03-02T03:12:01.502Z,173.73
2023-03-02T03:13:01.523Z,172.24
2023-03-02T03:14:01.497Z,173.30
2023-03-02T03:15:01.493Z,172.57
2023-03-02T03:16:01.485Z,173.37
2023-03-02T03:17:01.565Z,172.57
2023-03-02T03:18:01.548Z,173.13
2023-03-02T03:19:01.561Z,173.08
2023-03-02T03:20:01.598Z,173.49
2023-03-02T03:21:01.591Z,174.58
2023-03-02T03:22:01.611Z,173.27
2023-03-02T03:23:01.700Z,174.94
2023-03-02T03:24:01.652Z,172.45
2023-03-02T03:25:01.705Z,170.64
2023-03-02T03:26:01.678Z,172.85
2023-03-02T03:27:01.709Z,173.52
2023-03-02T03:28:01.728Z,171.83
2023-03-02T03:29:01.749Z,172.60
2023-03-02T03:30:01.794Z,171.27
2023-03-02T03:31:01.806Z,172.61
2023-03-02T03:32:01.886Z,173.51
2023-03-02T03:33:01.808Z,173.42
2023-03-02T03:34:01.852Z,170.67
2023-03-02T03:35:01.871Z,173.33
2023-03-02T03:36:01.927Z,172.48
2023-03-02T03:37:02.001Z,171.96
2023-03-02T03:38:01.920Z,171.04
2023-03-02T03:39:01.943Z,171.81
2023-03-02T03:40:02.006Z,172.71
2023-03-02T03:41:02.013Z,171.89
2023-03-02T03:42:02.100Z,170.96
2023-03-02T03:43:02.038Z,171.56
2023-03-02T03:44:02.073Z,169.97
2023-03-02T03:45:02.066Z,171.94
2023-03-02T03:46:02.120Z,171.45
2023-03-02T03:47:02.090Z,171.69
2023-03-02T03:48:02.120Z,172.10
2023-03-02T03:49:02.150Z,171.15
2023-03-02T03:50:02.194Z,172.83
2023-03-02T03:51:02.201Z,170.12
2023-03-02T03:52:02.217Z,173.05
2023-03-02T03:54:02.268Z,172.72
2023-03-02T03:55:02.224Z,171.32
2023-03-02T03:56:02.219Z,174.66
2023-03-02T03:57:02.230Z,172.10
2023-03-02T03:58:02.229Z,171.25
2023-03-02T03:59:02.214Z,170.62
2023-03-02T04:00:02.214Z,171.29
2023-03-02T04:01:02.271Z,171.46
2023-03-02T04:02:02.192Z,172.31
2023-03-02T04:03:02.202Z,169.13
2023-03-02T04:04:02.194Z,169.95
2023-03-02T04:05:02.182Z,171.02
2023-03-02T04:06:02.173Z,172.89
2023-03-02T04:07:02.193Z,171.42
2023-03-02T04:08:02.337Z,170.18
2023-03-02T04:09:02.192Z,169.60
2023-03-02T04:10:02.216Z,170.42
2023-03-02T04:11:02.230Z,168.42
2023-03-02T04:12:02.177Z,168.48
2023-03-02T04:13:02.188Z,169.68
2023-03-02T04:14:02.215Z,170.40
2023-03-02T04:15:02.241Z,168.90
2023-03-02T04:16:02.252Z,169.51
2023-03-02T04:17:02.224Z,170.38
2023-03-02T04:18:02.254Z,169.93
2023-03-02T04:19:02.259Z,169.17
2023-03-02T04:20:02.254Z,167.92
2023-03-02T04:21:02.260Z,170.72
2023-03-02T04:22:02.281Z,171.09
2023-03-02T04:23:02.285Z,170.15
2023-03-02T04:24:02.353Z,168.70
2023-03-02T04:25:02.402Z,170.25
2023-03-02T04:27:02.504Z,169.18
2023-03-02T04:28:02.506Z,170.02
2023-03-02T04:29:02.539Z,170.23
2023-03-02T04:30:02.589Z,170.36
2023-03-02T04:31:02.690Z,169.54
2023-03-02T04:32:02.691Z,167.62
2023-03-02T04:33:02.720Z,169.47
2023-03-02T04:34:02.768Z,170.18
2023-03-02T04:35:02.792Z,170.58
2023-03-02T04:36:02.890Z,170.18
2023-03-02T04:37:02.880Z,168.48
2023-03-02T04:38:02.923Z,169.13
2023-03-02T04:39:02.941Z,167.34
2023-03-02T04:40:02.967Z,166.49
2023-03-02T04:41:02.970Z,168.14
2023-03-02T04:42:03.053Z,167.95
2023-03-02T04:43:03.107Z,167.48
2023-03-02T06:01:14.868Z,163.94
2023-03-02T06:51:23.913Z,25.00
2023-03-02T06:52:23.922Z,27.38
2023-03-02T06:53:23.907Z,25.46
2023-03-02T06:54:24.188Z,25.27
2023-03-02T06:55:24.198Z,25.00
2023-03-02T06:56:23.897Z,25.39
2023-03-02T06:57:23.990Z,25.00
2023-03-02T06:58:24.020Z,25.20
2023-03-02T06:59:23.994Z,20.26
2023-03-02T07:01:24.009Z,8.98
2023-03-02T07:02:23.933Z,5.44
2023-03-02T07:03:23.970Z,25.12
2023-03-02T07:04:23.876Z,25.00
2023-03-02T07:05:24.208Z,25.52
2023-03-02T07:06:24.823Z,25.74
2023-03-02T07:07:23.902Z,25.34
2023-03-02T07:08:23.835Z,22.35
2023-03-02T07:09:23.934Z,17.02
2023-03-02T07:11:24.013Z,25.00
2023-03-02T07:12:24.088Z,25.41
2023-03-02T07:13:24.147Z,25.63
2023-03-02T07:15:24.231Z,26.83
2023-03-02T07:16:24.415Z,27.13
2023-03-02T07:17:24.284Z,26.35
2023-03-02T07:18:24.300Z,27.29
2023-03-02T07:19:24.285Z,25.00
2023-03-02T07:20:24.304Z,25.00
2023-03-02T07:21:24.465Z,25.78
2023-03-02T07:23:24.368Z,27.20
2023-03-02T07:24:24.409Z,30.98
2023-03-02T07:25:24.597Z,26.53
2023-03-02T07:26:24.527Z,26.55
2023-03-02T07:27:24.579Z,26.75
2023-03-02T07:28:24.664Z,26.17
2023-03-02T07:29:24.615Z,27.09
2023-03-02T07:30:25.167Z,29.03
2023-03-02T07:31:24.707Z,27.37
2023-03-02T07:32:24.753Z,25.00
2023-03-02T07:33:25.052Z,27.77
2023-03-02T07:34:24.832Z,29.33
2023-03-02T07:36:24.889Z,30.02
2023-03-02T07:37:24.879Z,32.98
2023-03-02T07:38:24.950Z,30.56
2023-03-02T08:36:26.314Z,248.93
2023-03-02T08:37:26.364Z,250.00
2023-03-02T08:38:26.436Z,246.69
2023-03-02T08:39:28.789Z,249.06
2023-03-02T08:40:26.619Z,247.87
2023-03-02T08:41:26.694Z,238.21
2023-03-02T08:42:26.660Z,232.82
2023-03-02T08:43:26.631Z,237.80
2023-03-02T08:44:26.629Z,231.68
2023-03-02T08:45:26.695Z,228.73
2023-03-02T08:46:26.696Z,225.50
2023-03-02T08:47:26.647Z,225.43
2023-03-02T08:48:26.650Z,223.25
2023-03-02T08:49:26.639Z,219.73
2023-03-02T08:50:26.657Z,215.19
2023-03-02T08:52:26.648Z,211.62
2023-03-02T08:53:26.633Z,208.99
2023-03-02T08:54:26.640Z,206.32
2023-03-02T08:55:26.703Z,202.29
2023-03-02T08:56:26.698Z,199.44
2023-03-02T08:57:26.714Z,197.21
2023-03-02T08:58:26.718Z,195.07
2023-03-02T08:59:26.756Z,195.75
2023-03-02T09:00:26.847Z,192.06
2023-03-02T09:01:26.817Z,187.88
2023-03-02T09:02:26.760Z,187.40
2023-03-02T09:03:26.752Z,185.32
2023-03-02T09:04:26.765Z,181.09
2023-03-02T09:05:26.790Z,180.83
2023-03-02T09:06:26.824Z,177.22
2023-03-02T09:07:26.826Z,178.17
2023-03-02T09:08:26.838Z,177.75
2023-03-02T09:09:26.840Z,177.18
2023-03-02T09:10:26.902Z,178.96
2023-03-02T09:11:27.214Z,176.77
2023-03-02T09:12:26.910Z,174.44
2023-03-02T09:13:26.943Z,172.36
2023-03-02T09:14:26.985Z,171.60
2023-03-02T09:15:27.024Z,169.49
2023-03-02T09:16:27.164Z,168.63
2023-03-02T09:17:27.159Z,167.44
2023-03-02T09:18:27.180Z,164.63
2023-03-02T09:19:27.214Z,164.90
2023-03-02T09:20:27.327Z,164.41
2023-03-02T09:21:27.453Z,161.96
2023-03-02T09:22:27.421Z,162.80
2023-03-02T09:23:27.448Z,162.11
2023-03-02T09:24:27.432Z,160.67
2023-03-02T09:25:27.467Z,159.24
2023-03-02T09:26:27.722Z,157.19
2023-03-02T09:27:27.524Z,155.24
2023-03-02T09:28:27.506Z,152.75
2023-03-02T09:29:27.598Z,154.93
2023-03-02T09:30:27.638Z,152.46
2023-03-02T09:31:30.267Z,151.66
2023-03-02T09:32:27.871Z,150.29
2023-03-02T09:33:27.678Z,151.76
2023-03-02T09:34:27.674Z,151.79
2023-03-02T09:35:27.689Z,150.54
2023-03-02T09:36:27.679Z,145.81
2023-03-02T09:37:28.293Z,146.50
2023-03-02T09:39:27.609Z,146.86
2023-03-02T09:40:27.615Z,143.31
2023-03-02T09:41:27.719Z,119.69
2023-03-02T09:42:41.817Z,103.00
2023-03-02T09:43:28.586Z,88.06
2023-03-02T09:44:27.576Z,94.57
2023-03-02T09:45:27.625Z,100.30
2023-03-02T09:46:27.658Z,98.62
2023-03-02T09:47:35.448Z,90.62
2023-03-02T09:48:28.566Z,90.16
2023-03-02T09:49:27.534Z,84.93
2023-03-02T09:50:28.016Z,82.00
2023-03-02T09:51:27.691Z,76.68
2023-03-02T09:52:27.568Z,12.60
2023-03-02T09:53:27.533Z,25.00
2023-03-02T09:54:27.571Z,47.52
2023-03-02T09:55:27.501Z,51.43
2023-03-02T09:56:28.207Z,55.07
2023-03-02T09:57:27.501Z,57.65
2023-03-02T09:58:27.509Z,44.46
2023-03-02T09:59:27.498Z,50.23
2023-03-02T10:00:27.484Z,53.78
2023-03-02T10:01:27.484Z,54.16
2023-03-02T10:02:27.471Z,60.14
2023-03-02T10:03:27.548Z,56.75
2023-03-02T10:04:27.672Z,58.15
2023-03-02T10:05:27.487Z,29.88
2023-03-02T10:06:28.117Z,19.54
2023-03-02T10:07:27.658Z,6.14
2023-03-02T10:08:27.589Z,18.68
2023-03-02T10:09:27.535Z,9.36
2023-03-02T10:10:27.704Z,21.82
2023-03-02T10:11:27.599Z,27.45
2023-03-02T10:12:27.895Z,43.66
2023-03-02T10:13:27.554Z,72.30
2023-03-02T10:14:27.715Z,83.85
2023-03-02T10:15:27.692Z,88.14
2023-03-02T10:16:28.036Z,87.76
2023-03-02T10:17:27.909Z,87.73
2023-03-02T10:18:27.885Z,86.77
2023-03-02T10:19:28.003Z,88.38
2023-03-02T10:20:34.129Z,89.25
2023-03-02T10:21:28.943Z,77.37
2023-03-02T10:22:28.723Z,76.05
2023-03-02T10:23:27.939Z,82.33
2023-03-02T10:24:29.141Z,80.77
2023-03-02T10:25:27.948Z,79.31
2023-03-02T10:26:27.891Z,58.14
2023-03-02T10:27:27.946Z,43.00
2023-03-02T10:28:28.172Z,55.13
2023-03-02T10:29:27.974Z,56.45
2023-03-02T10:30:28.073Z,65.01
2023-03-02T10:31:28.129Z,73.12
2023-03-02T10:32:28.195Z,79.24
2023-03-02T10:33:28.135Z,75.74
2023-03-02T10:34:28.200Z,65.30
2023-03-02T10:35:28.246Z,67.64
2023-03-02T10:36:28.260Z,76.88
2023-03-02T10:37:28.743Z,81.14
2023-03-02T10:38:28.285Z,81.09
2023-03-02T10:39:28.328Z,76.12
2023-03-02T10:40:28.336Z,75.06
2023-03-02T10:41:28.364Z,71.97
2023-03-02T10:42:28.739Z,78.03
2023-03-02T10:43:28.425Z,82.50
2023-03-02T10:44:28.458Z,82.37
2023-03-02T10:45:28.412Z,83.50
2023-03-02T10:46:28.460Z,84.63
2023-03-02T10:47:28.756Z,82.94
2023-03-02T10:48:28.510Z,85.31
2023-03-02T10:49:28.503Z,88.10
2023-03-02T10:50:28.549Z,90.92
2023-03-02T10:51:28.573Z,92.37
2023-03-02T10:52:28.726Z,95.70
2023-03-02T10:53:28.642Z,96.12
2023-03-02T10:54:28.682Z,99.07
2023-03-02T10:55:28.715Z,101.56
2023-03-02T10:56:28.719Z,105.90
2023-03-02T10:57:28.701Z,106.66
2023-03-02T10:58:28.725Z,107.59
2023-03-02T10:59:28.736Z,111.29
2023-03-02T11:00:28.921Z,113.26
2023-03-02T11:01:28.777Z,115.50
2023-03-02T11:02:28.741Z,117.43
2023-03-02T11:03:28.794Z,120.28
2023-03-02T11:04:28.908Z,122.19
2023-03-02T11:05:28.939Z,123.99
2023-03-02T11:06:29.028Z,126.62
2023-03-02T11:07:29.253Z,129.67
2023-03-02T11:08:29.106Z,130.82
2023-03-02T11:09:29.176Z,134.43
2023-03-02T11:10:29.270Z,135.96
2023-03-02T11:11:29.311Z,138.89
2023-03-02T11:12:29.266Z,140.38
2023-03-02T11:13:29.193Z,142.05
2023-03-02T11:14:29.183Z,144.80
2023-03-02T11:15:29.197Z,147.12
2023-03-02T11:16:29.287Z,148.68
2023-03-02T11:17:29.245Z,151.48
2023-03-02T11:18:29.167Z,154.48
2023-03-02T11:19:29.170Z,155.99
2023-03-02T11:20:29.177Z,158.51
2023-03-02T11:21:29.189Z,166.51
2023-03-02T11:22:29.147Z,189.75
2023-03-02T11:23:29.135Z,228.12
2023-03-02T11:24:29.155Z,251.37
2023-03-02T11:25:29.188Z,254.83
2023-03-02T11:26:29.222Z,249.77
2023-03-02T11:27:29.244Z,248.59
2023-03-02T11:28:29.210Z,247.50
2023-03-02T11:29:29.248Z,242.90
2023-03-02T11:30:29.295Z,242.43
2023-03-02T11:31:29.424Z,241.36
2023-03-02T11:32:29.841Z,240.16
2023-03-02T11:33:29.346Z,240.08
2023-03-02T11:34:29.383Z,240.47
2023-03-02T11:35:30.421Z,240.52
2023-03-02T11:36:29.338Z,240.52
2023-03-02T11:37:29.796Z,239.32
2023-03-02T11:38:29.360Z,238.62
2023-03-02T11:39:29.340Z,240.28
2023-03-02T11:40:29.313Z,239.35
2023-03-02T11:41:29.297Z,238.88
2023-03-02T11:42:29.794Z,238.13
2023-03-02T11:43:29.280Z,234.91
2023-03-02T11:44:29.292Z,232.47
2023-03-02T11:46:29.473Z,225.00
2023-03-02T11:47:30.303Z,222.41
2023-03-02T11:48:29.502Z,222.82
2023-03-02T11:49:29.349Z,222.53
2023-03-02T11:50:29.596Z,222.64
2023-03-02T11:51:30.596Z,221.99
2023-03-02T11:52:29.778Z,222.60
2023-03-02T11:53:29.736Z,221.58
2023-03-02T11:54:29.901Z,223.28
2023-03-02T11:55:29.470Z,224.03
2023-03-02T11:56:29.533Z,225.16
2023-03-02T11:57:29.526Z,225.14
2023-03-02T11:58:29.771Z,226.42
2023-03-02T11:59:29.609Z,226.21
2023-03-02T12:00:29.666Z,227.80
2023-03-02T12:01:29.665Z,228.01
2023-03-02T12:02:29.741Z,227.83
2023-03-02T12:03:30.302Z,229.32
2023-03-02T12:04:29.797Z,226.32
2023-03-02T12:05:29.895Z,228.64
2023-03-02T12:06:29.895Z,228.05
2023-03-02T12:07:29.874Z,228.52
2023-03-02T12:08:30.266Z,225.62
2023-03-02T12:09:29.942Z,224.70
2023-03-02T12:10:29.987Z,221.91
2023-03-02T12:11:30.001Z,220.53
2023-03-02T12:12:30.127Z,219.20
2023-03-02T12:13:30.171Z,217.61
2023-03-02T12:14:30.072Z,216.71
2023-03-02T12:15:30.128Z,214.08
2023-03-02T12:16:30.208Z,212.56
2023-03-02T12:17:30.725Z,210.62
2023-03-02T12:18:30.204Z,206.50
2023-03-02T12:19:30.155Z,203.75
2023-03-02T12:20:30.270Z,202.65
2023-03-02T12:21:30.170Z,201.65
2023-03-02T12:22:30.140Z,199.27
2023-03-02T12:23:30.275Z,197.15
2023-03-02T12:24:30.147Z,195.03
2023-03-02T12:25:30.146Z,166.41
2023-03-02T12:26:30.249Z,136.29
2023-03-02T12:27:30.231Z,120.86
2023-03-02T12:28:30.402Z,140.01
2023-03-02T12:29:30.279Z,137.06
2023-03-02T12:30:30.257Z,114.44
2023-03-02T12:31:30.286Z,91.03
2023-03-02T12:32:30.331Z,58.57
2023-03-02T12:33:30.276Z,31.03
2023-03-02T12:34:31.258Z,22.51
2023-03-02T12:35:30.372Z,26.95
2023-03-02T12:36:30.455Z,24.25
2023-03-02T12:37:30.391Z,25.00
2023-03-02T12:38:30.882Z,25.72
2023-03-02T12:39:30.447Z,25.77
2023-03-02T12:40:30.467Z,31.05
2023-03-02T12:41:30.470Z,31.62
2023-03-02T12:42:30.475Z,30.54
2023-03-02T12:43:30.477Z,38.76
2023-03-02T12:44:30.462Z,26.85
2023-03-02T12:45:30.468Z,33.38
2023-03-02T12:46:30.547Z,24.73
2023-03-02T12:47:30.997Z,22.19
2023-03-02T12:48:30.565Z,24.07
2023-03-02T12:49:30.425Z,23.65
2023-03-02T12:50:30.453Z,25.78
2023-03-02T12:51:30.623Z,37.84
2023-03-02T12:52:30.474Z,40.91
2023-03-02T12:53:30.440Z,45.41
2023-03-02T12:54:30.465Z,47.69
2023-03-02T12:55:30.466Z,46.33
2023-03-02T12:56:30.459Z,50.22
2023-03-02T12:57:30.472Z,53.29
2023-03-02T12:58:30.584Z,35.71
2023-03-02T12:59:30.521Z,37.72
2023-03-02T13:00:30.552Z,35.65
2023-03-02T13:01:30.659Z,22.77
2023-03-02T13:02:30.674Z,35.50
2023-03-02T13:03:30.650Z,35.00
2023-03-02T13:04:30.749Z,24.56
2023-03-02T13:05:30.737Z,16.76
2023-03-02T13:06:30.783Z,22.71
2023-03-02T13:07:30.884Z,18.79
2023-03-02T13:08:30.929Z,20.34
2023-03-02T13:09:30.934Z,29.18
2023-03-02T13:10:31.019Z,36.10
2023-03-02T13:12:30.905Z,44.04
2023-03-02T13:13:30.965Z,37.57
2023-03-02T13:14:30.940Z,25.07
2023-03-02T13:15:30.941Z,26.18
2023-03-02T13:16:31.064Z,23.13
2023-03-02T13:17:31.117Z,27.56
2023-03-02T13:18:31.009Z,31.66
2023-03-02T13:19:31.037Z,31.50
2023-03-02T15:54:36.361Z,226.57
2023-03-02T15:58:36.281Z,226.01
2023-03-02T15:59:36.357Z,224.77
2023-03-02T16:00:36.433Z,225.71
2023-03-02T16:01:36.464Z,225.56
2023-03-02T16:02:36.535Z,224.97
2023-03-02T16:03:36.564Z,225.20
2023-03-02T16:04:36.640Z,225.17
2023-03-02T16:05:36.689Z,226.37
2023-03-02T16:06:36.759Z,224.23
2023-03-02T16:07:36.762Z,224.59
2023-03-02T16:08:36.860Z,224.24
2023-03-02T16:09:36.808Z,225.49
2023-03-02T16:10:36.853Z,223.90
2023-03-02T16:11:37.213Z,224.14
2023-03-02T16:12:36.841Z,223.72
2023-03-02T16:13:36.841Z,224.30
2023-03-02T16:14:36.879Z,223.99
2023-03-02T16:15:36.896Z,223.73
2023-03-02T16:16:36.910Z,223.83
2023-03-02T16:17:36.883Z,223.81
2023-03-02T16:18:36.908Z,222.80
2023-03-02T16:19:36.911Z,223.37
2023-03-02T16:20:36.992Z,223.61
2023-03-02T16:21:36.969Z,222.79
2023-03-02T16:22:36.954Z,223.01
2023-03-02T16:23:36.967Z,222.45
2023-03-02T16:24:37.014Z,223.19
2023-03-02T16:25:37.093Z,222.72
2023-03-02T16:26:37.053Z,223.04
2023-03-02T16:27:37.029Z,221.67
2023-03-02T16:28:37.052Z,222.58
2023-03-02T16:29:37.061Z,223.00
2023-03-02T16:30:37.086Z,222.58
2023-03-02T16:31:37.110Z,222.47
2023-03-02T16:32:37.183Z,222.13
2023-03-02T16:33:37.129Z,221.36
2023-03-02T16:34:37.119Z,221.79
2023-03-02T16:35:37.156Z,221.38
2023-03-02T16:36:37.200Z,221.15
2023-03-02T16:37:37.366Z,220.93
2023-03-02T16:38:37.370Z,221.20
2023-03-02T16:39:37.425Z,221.56
2023-03-02T16:44:15.103Z,25.00
2023-03-02T18:32:16.726Z,31.32
2023-03-02T18:33:16.700Z,31.46
2023-03-02T18:34:16.732Z,33.92
2023-03-02T18:35:16.766Z,34.08
2023-03-02T18:36:16.843Z,33.17
2023-03-02T18:37:16.804Z,32.38
2023-03-02T18:38:16.834Z,32.13
2023-03-02T18:39:16.864Z,33.17
2023-03-02T18:40:16.898Z,33.39
2023-03-02T18:41:16.962Z,32.63
2023-03-02T18:42:16.965Z,33.61
2023-03-02T18:43:17.019Z,33.18
2023-03-02T18:44:17.028Z,34.73
2023-03-02T18:45:17.050Z,34.50
2023-03-02T18:46:17.178Z,34.69
2023-03-02T18:47:17.093Z,34.76
2023-03-02T18:48:17.135Z,36.86
2023-03-02T18:49:17.170Z,34.48
2023-03-02T18:50:18.000Z,33.85
2023-03-02T18:51:17.229Z,34.53
2023-03-02T18:52:17.298Z,36.17
2023-03-02T18:53:17.293Z,37.57
2023-03-02T18:54:17.321Z,32.99
2023-03-02T18:55:17.543Z,32.74
2023-03-02T18:56:17.398Z,33.49
2023-03-02T18:57:17.444Z,32.96
2023-03-02T18:58:17.448Z,31.28
2023-03-02T18:59:17.487Z,30.96
2023-03-02T19:00:17.499Z,32.47
2023-03-02T19:01:17.611Z,29.38
2023-03-02T19:02:17.613Z,33.96
2023-03-02T19:03:17.579Z,29.73
2023-03-02T19:04:17.638Z,33.94
2023-03-02T19:05:17.635Z,33.87
2023-03-02T19:06:17.669Z,36.52
2023-03-02T19:07:17.725Z,33.21
2023-03-02T19:08:17.740Z,32.03
2023-03-02T19:09:17.770Z,32.02
2023-03-02T19:10:18.764Z,30.21
2023-03-02T19:12:36.625Z,25.00
2023-03-02T20:33:37.836Z,33.72
2023-03-02T20:34:37.886Z,31.42
2023-03-02T20:35:38.882Z,26.96
2023-03-02T20:36:37.930Z,31.69
2023-03-02T20:37:37.929Z,32.76
2023-03-02T20:38:37.992Z,29.17
2023-03-02T20:39:37.998Z,28.95
2023-03-02T20:40:38.004Z,27.91
2023-03-02T20:41:38.077Z,29.54
2023-03-02T20:42:38.107Z,32.64
2023-03-02T20:43:38.132Z,28.08
2023-03-02T20:44:38.218Z,29.67
2023-03-02T20:45:38.155Z,30.23
2023-03-02T20:46:38.200Z,28.63
2023-03-02T20:47:38.200Z,30.74
2023-03-02T20:48:38.256Z,30.99
2023-03-02T20:49:38.269Z,30.31
2023-03-02T20:50:38.305Z,28.77
2023-03-02T20:51:38.298Z,29.31
2023-03-02T20:52:38.339Z,28.29
2023-03-02T20:53:38.343Z,30.77
2023-03-02T20:54:38.396Z,29.86
2023-03-02T20:55:38.438Z,30.29
2023-03-02T20:56:38.462Z,29.19
2023-03-02T20:57:38.488Z,27.97
2023-03-02T20:58:38.495Z,34.21
2023-03-02T20:59:38.518Z,30.93
2023-03-02T21:00:38.552Z,31.93
2023-03-02T21:01:38.633Z,27.39
2023-03-02T21:02:38.581Z,30.94
2023-03-02T21:03:38.618Z,27.22
2023-03-02T21:04:38.675Z,31.20
2023-03-02T21:05:38.673Z,31.87
2023-03-02T21:06:38.695Z,32.32
2023-03-02T21:07:38.698Z,30.81
2023-03-02T21:08:38.720Z,27.20
2023-03-02T21:09:38.815Z,25.07
